createdAt,value
2023-05-01T00:00:28.895Z,3.70
2023-05-01T00:02:55.883Z,3.70
2023-05-01T00:05:22.808Z,3.70
2023-05-01T00:07:49.831Z,3.70
2023-05-01T00:10:17.182Z,3.70
2023-05-01T00:12:44.080Z,3.60
2023-05-01T00:15:11.414Z,3.70
2023-05-01T00:17:38.458Z,3.70
2023-05-01T00:20:06.196Z,3.70
2023-05-01T00:22:33.202Z,3.60
2023-05-01T00:25:00.144Z,3.70
2023-05-01T00:27:27.451Z,3.60
2023-05-01T00:29:54.681Z,3.60
2023-05-01T00:32:21.903Z,3.60
2023-05-01T00:34:49.336Z,3.60
2023-05-01T00:37:17.534Z,3.60
2023-05-01T00:39:44.423Z,3.60
2023-05-01T00:42:11.458Z,3.50
2023-05-01T00:44:38.296Z,3.60
2023-05-01T00:47:05.455Z,3.50
2023-05-01T00:49:32.509Z,3.50
2023-05-01T00:52:00.201Z,3.50
2023-05-01T00:54:28.252Z,3.40
2023-05-01T00:56:55.957Z,3.40
2023-05-01T00:59:22.856Z,3.40
2023-05-01T01:01:50.818Z,3.40
2023-05-01T01:04:17.930Z,3.40
2023-05-01T01:06:48.224Z,3.40
2023-05-01T01:09:23.336Z,3.40
2023-05-01T01:12:18.115Z,3.40
2023-05-01T01:15:13.055Z,3.40
2023-05-01T01:18:16.618Z,3.40
2023-05-01T01:20:46.681Z,3.40
2023-05-01T01:23:32.693Z,3.40
2023-05-01T01:26:02.595Z,4.80
2023-05-01T01:29:17.062Z,3.40
2023-05-01T01:31:55.489Z,3.40
2023-05-01T01:34:35.413Z,3.40
2023-05-01T01:37:12.183Z,3.40
2023-05-01T01:39:49.834Z,3.40
2023-05-01T01:42:22.144Z,3.30
2023-05-01T01:44:54.879Z,3.30
2023-05-01T01:47:28.421Z,3.30
2023-05-01T01:49:56.666Z,3.30
2023-05-01T01:52:26.539Z,3.30
2023-05-01T01:54:58.640Z,3.30
2023-05-01T01:57:27.021Z,3.20
2023-05-01T01:59:55.507Z,3.20
2023-05-01T02:02:23.518Z,3.10
2023-05-01T02:04:52.169Z,3.10
2023-05-01T02:07:20.791Z,3.10
2023-05-01T02:09:50.518Z,3.20
2023-05-01T02:12:19.569Z,3.20
2023-05-01T02:14:48.286Z,3.20
2023-05-01T02:17:16.309Z,3.20
2023-05-01T02:19:45.098Z,3.20
2023-05-01T02:22:12.722Z,3.20
2023-05-01T02:24:42.527Z,3.10
2023-05-01T02:27:23.889Z,3.00
2023-05-01T02:29:54.209Z,3.00
2023-05-01T02:32:21.365Z,2.90
2023-05-01T02:34:48.390Z,2.90
2023-05-01T02:37:16.291Z,2.90
2023-05-01T02:39:43.390Z,2.80
2023-05-01T02:42:12.196Z,2.80
2023-05-01T02:44:43.765Z,2.80
2023-05-01T02:47:14.204Z,2.80
2023-05-01T02:49:42.207Z,2.80
2023-05-01T02:52:10.244Z,2.70
2023-05-01T02:54:37.682Z,2.70
2023-05-01T02:57:05.472Z,2.70
2023-05-01T02:59:33.426Z,2.70
2023-05-01T03:02:00.533Z,2.70
2023-05-01T03:04:27.931Z,2.70
2023-05-01T03:09:23.836Z,2.60
2023-05-01T03:14:18.216Z,2.60
2023-05-01T03:19:12.940Z,2.50
2023-05-01T03:21:39.779Z,2.50
2023-05-01T03:24:07.364Z,2.50
2023-05-01T03:26:34.464Z,2.60
2023-05-01T03:29:01.330Z,2.50
2023-05-01T03:31:28.409Z,2.50
2023-05-01T03:33:55.331Z,2.50
2023-05-01T03:36:22.680Z,2.50
2023-05-01T03:41:17.244Z,2.50
2023-05-01T03:43:44.210Z,2.40
2023-05-01T03:46:11.525Z,2.40
2023-05-01T03:48:38.537Z,2.40
2023-05-01T03:51:05.719Z,2.40
2023-05-01T03:53:33.122Z,2.40
2023-05-01T03:55:59.999Z,2.50
2023-05-01T03:58:26.978Z,2.50
2023-05-01T04:00:57.038Z,2.50
2023-05-01T04:03:24.106Z,2.50
2023-05-01T04:05:51.339Z,2.50
2023-05-01T04:08:18.278Z,2.50
2023-05-01T04:10:45.231Z,2.50
2023-05-01T04:13:13.103Z,2.60
2023-05-01T04:15:40.229Z,2.60
2023-05-01T04:18:07.252Z,2.60
2023-05-01T04:20:34.490Z,2.70
2023-05-01T04:23:01.457Z,2.70
2023-05-01T04:25:28.313Z,2.70
2023-05-01T04:27:55.321Z,2.80
2023-05-01T04:30:22.210Z,2.80
2023-05-01T04:32:49.087Z,2.90
2023-05-01T04:35:16.442Z,2.90
2023-05-01T04:37:43.364Z,3.00
2023-05-01T04:40:11.812Z,3.10
2023-05-01T04:42:38.768Z,3.10
2023-05-01T04:45:06.482Z,3.20
2023-05-01T04:47:33.428Z,3.20
2023-05-01T04:50:00.523Z,3.30
2023-05-01T04:52:27.437Z,3.30
2023-05-01T04:54:54.342Z,3.30
2023-05-01T04:57:21.213Z,3.40
2023-05-01T04:59:48.283Z,3.40
2023-05-01T05:02:15.363Z,3.50
2023-05-01T05:04:42.282Z,3.60
2023-05-01T05:07:09.594Z,3.60
2023-05-01T05:09:36.517Z,3.70
2023-05-01T05:12:04.689Z,3.80
2023-05-01T05:14:31.786Z,3.80
2023-05-01T05:16:58.834Z,3.90
2023-05-01T05:19:26.341Z,4.00
2023-05-01T05:21:53.275Z,4.10
2023-05-01T05:24:20.197Z,4.10
2023-05-01T05:26:47.088Z,4.30
2023-05-01T05:29:14.486Z,4.40
2023-05-01T05:31:41.333Z,4.50
2023-05-01T05:34:08.548Z,4.60
2023-05-01T05:36:35.860Z,4.70
2023-05-01T05:39:03.636Z,4.80
2023-05-01T05:41:30.617Z,4.90
2023-05-01T05:43:57.535Z,5.00
2023-05-01T05:46:24.526Z,5.10
2023-05-01T05:48:51.703Z,5.20
2023-05-01T05:51:19.530Z,5.30
2023-05-01T05:53:46.528Z,5.40
2023-05-01T05:56:13.383Z,5.60
2023-05-01T05:58:40.240Z,5.70
2023-05-01T06:01:07.212Z,5.80
2023-05-01T06:03:34.213Z,6.00
2023-05-01T06:06:01.939Z,6.10
2023-05-01T06:08:28.988Z,6.20
2023-05-01T06:10:56.608Z,6.30
2023-05-01T06:13:23.465Z,6.40
2023-05-01T06:15:50.539Z,6.50
2023-05-01T06:18:17.629Z,6.60
2023-05-01T06:20:44.934Z,6.70
2023-05-01T06:23:13.735Z,6.80
2023-05-01T06:25:40.736Z,6.90
2023-05-01T06:28:07.740Z,7.00
2023-05-01T06:35:42.951Z,7.40
2023-05-01T06:38:09.761Z,7.60
2023-05-01T06:40:36.708Z,7.60
2023-05-01T06:43:04.304Z,7.70
2023-05-01T06:45:31.298Z,7.80
2023-05-01T06:47:58.181Z,7.90
2023-05-01T06:50:25.077Z,7.90
2023-05-01T06:52:51.978Z,8.00
2023-05-01T06:55:18.958Z,8.10
2023-05-01T06:57:45.898Z,8.20
2023-05-01T07:00:13.874Z,8.40
2023-05-01T07:02:41.128Z,8.40
2023-05-01T07:05:08.249Z,8.40
2023-05-01T07:07:37.522Z,8.50
2023-05-01T07:10:06.489Z,8.60
2023-05-01T07:12:33.607Z,8.70
2023-05-01T07:15:00.869Z,8.80
2023-05-01T07:17:29.183Z,8.90
2023-05-01T07:19:56.297Z,9.00
2023-05-01T07:22:23.380Z,9.20
2023-05-01T07:24:50.277Z,9.50
2023-05-01T07:27:17.228Z,9.70
2023-05-01T07:29:44.767Z,9.90
2023-05-01T07:32:11.837Z,10.10
2023-05-01T07:34:38.761Z,10.20
2023-05-01T07:37:05.732Z,10.30
2023-05-01T07:39:32.816Z,10.40
2023-05-01T07:41:59.765Z,10.50
2023-05-01T07:44:27.082Z,10.60
2023-05-01T07:46:54.111Z,10.60
2023-05-01T07:49:21.176Z,10.80
2023-05-01T07:51:49.736Z,10.80
2023-05-01T07:54:17.090Z,10.90
2023-05-01T07:56:44.272Z,11.00
2023-05-01T07:59:11.285Z,11.10
2023-05-01T08:01:38.262Z,11.10
2023-05-01T08:04:05.616Z,11.10
2023-05-01T08:06:32.728Z,11.20
2023-05-01T08:08:59.653Z,11.20
2023-05-01T08:11:27.096Z,11.30
2023-05-01T08:13:53.972Z,11.40
2023-05-01T08:16:22.173Z,11.40
2023-05-01T08:18:49.246Z,11.50
2023-05-01T08:21:16.110Z,11.50
2023-05-01T08:23:42.959Z,11.60
2023-05-01T08:26:09.824Z,11.60
2023-05-01T08:28:37.567Z,11.70
2023-05-01T08:31:04.686Z,11.70
2023-05-01T08:33:31.601Z,11.70
2023-05-01T08:35:58.762Z,11.80
2023-05-01T08:38:25.630Z,11.80
2023-05-01T08:40:54.084Z,11.90
2023-05-01T08:43:21.518Z,12.00
2023-05-01T08:45:49.107Z,12.10
2023-05-01T08:48:18.823Z,12.20
2023-05-01T08:50:47.196Z,12.20
2023-05-01T08:53:17.268Z,12.40
2023-05-01T08:55:48.644Z,12.40
2023-05-01T08:58:19.825Z,12.50
2023-05-01T09:00:47.877Z,12.50
2023-05-01T09:03:15.380Z,12.60
2023-05-01T09:05:42.484Z,12.60
2023-05-01T09:08:09.551Z,12.70
2023-05-01T09:10:43.036Z,12.80
2023-05-01T09:13:10.186Z,12.80
2023-05-01T09:15:37.770Z,12.90
2023-05-01T09:18:04.751Z,12.90
2023-05-01T09:20:32.745Z,13.00
2023-05-01T09:22:59.967Z,13.00
2023-05-01T09:25:27.008Z,13.10
2023-05-01T09:27:54.622Z,13.20
2023-05-01T09:30:38.138Z,13.30
2023-05-01T09:33:16.919Z,13.50
2023-05-01T09:35:54.078Z,13.60
2023-05-01T09:38:23.067Z,13.80
2023-05-01T09:40:50.577Z,13.90
2023-05-01T09:43:28.376Z,14.00
2023-05-01T09:46:03.710Z,14.00
2023-05-01T09:48:34.139Z,14.10
2023-05-01T09:51:19.568Z,14.10
2023-05-01T09:53:46.452Z,14.10
2023-05-01T09:56:13.333Z,14.10
2023-05-01T09:58:40.486Z,14.10
2023-05-01T10:01:07.464Z,14.20
2023-05-01T10:03:35.069Z,14.30
2023-05-01T10:06:03.913Z,14.40
2023-05-01T10:08:48.894Z,14.50
2023-05-01T10:11:16.141Z,14.50
2023-05-01T10:13:43.121Z,14.60
2023-05-01T10:16:30.131Z,14.60
2023-05-01T10:19:01.677Z,14.70
2023-05-01T10:21:32.764Z,14.80
2023-05-01T10:24:02.003Z,14.90
2023-05-01T10:26:29.539Z,15.00
2023-05-01T10:28:59.559Z,15.00
2023-05-01T10:31:27.841Z,15.10
2023-05-01T10:33:55.990Z,15.20
2023-05-01T10:36:28.719Z,15.30
2023-05-01T10:38:55.580Z,15.40
2023-05-01T10:41:59.658Z,15.50
2023-05-01T10:44:27.430Z,15.60
2023-05-01T10:46:55.142Z,15.70
2023-05-01T10:49:22.909Z,15.70
2023-05-01T10:51:58.628Z,15.70
2023-05-01T10:54:27.360Z,15.80
2023-05-01T10:56:59.487Z,15.80
2023-05-01T10:59:27.240Z,15.80
2023-05-01T11:01:54.438Z,15.60
2023-05-01T11:04:30.570Z,15.70
2023-05-01T11:07:08.297Z,15.60
2023-05-01T11:09:51.362Z,15.50
2023-05-01T11:12:48.249Z,15.50
2023-05-01T11:15:27.247Z,15.50
2023-05-01T11:17:54.525Z,15.50
2023-05-01T11:20:28.707Z,15.50
2023-05-01T11:22:58.776Z,15.50
2023-05-01T11:25:27.919Z,15.60
2023-05-01T11:27:57.256Z,15.70
2023-05-01T11:30:24.263Z,15.90
2023-05-01T11:32:51.822Z,16.00
2023-05-01T11:35:24.467Z,16.20
2023-05-01T11:37:51.860Z,16.30
2023-05-01T11:40:25.976Z,16.30
2023-05-01T11:43:02.308Z,16.30
2023-05-01T11:45:29.850Z,16.40
2023-05-01T11:47:56.931Z,16.40
2023-05-01T11:50:36.496Z,16.50
2023-05-01T11:53:04.938Z,16.60
2023-05-01T11:55:33.082Z,16.60
2023-05-01T11:58:00.477Z,16.50
2023-05-01T12:00:29.783Z,16.50
2023-05-01T12:03:14.385Z,16.50
2023-05-01T12:05:44.121Z,16.70
2023-05-01T12:08:15.778Z,16.70
2023-05-01T12:10:46.556Z,16.80
2023-05-01T12:13:14.573Z,16.90
2023-05-01T12:15:45.166Z,17.00
2023-05-01T12:18:13.574Z,16.90
2023-05-01T12:20:47.426Z,16.90
2023-05-01T12:23:18.081Z,16.80
2023-05-01T12:25:46.050Z,16.80
2023-05-01T12:28:18.439Z,16.90
2023-05-01T12:30:49.429Z,17.00
2023-05-01T12:33:19.383Z,17.20
2023-05-01T12:35:49.303Z,17.20
2023-05-01T12:38:23.019Z,17.30
2023-05-01T12:40:58.196Z,17.30
2023-05-01T12:43:37.359Z,17.30
2023-05-01T12:46:05.976Z,17.20
2023-05-01T12:48:35.803Z,17.30
2023-05-01T12:51:02.803Z,17.30
2023-05-01T12:53:30.387Z,17.30
2023-05-01T12:55:58.899Z,17.40
2023-05-01T12:58:37.088Z,17.40
2023-05-01T13:01:04.559Z,17.20
2023-05-01T13:03:32.853Z,17.20
2023-05-01T13:06:02.613Z,17.20
2023-05-01T13:08:32.000Z,17.10
2023-05-01T13:11:01.031Z,17.10
2023-05-01T13:13:34.261Z,17.20
2023-05-01T13:16:12.866Z,17.40
2023-05-01T13:18:51.536Z,17.40
2023-05-01T13:21:20.804Z,17.30
2023-05-01T13:23:57.652Z,17.20
2023-05-01T13:26:33.673Z,17.10
2023-05-01T13:29:03.256Z,17.10
2023-05-01T13:31:30.625Z,17.10
2023-05-01T13:33:59.852Z,17.10
2023-05-01T13:36:33.198Z,17.00
2023-05-01T13:39:00.225Z,17.00
2023-05-01T13:41:27.871Z,17.00
2023-05-01T13:43:56.530Z,16.90
2023-05-01T13:46:24.711Z,16.80
2023-05-01T13:48:52.056Z,16.80
2023-05-01T13:51:24.897Z,16.80
2023-05-01T13:53:53.970Z,16.70
2023-05-01T13:56:22.242Z,16.70
2023-05-01T13:58:50.387Z,16.60
2023-05-01T14:01:20.712Z,16.60
2023-05-01T14:03:48.541Z,16.60
2023-05-01T14:06:20.508Z,16.60
2023-05-01T14:08:50.086Z,16.70
2023-05-01T14:11:18.272Z,16.70
2023-05-01T14:13:46.823Z,16.80
2023-05-01T14:16:24.673Z,16.90
2023-05-01T14:18:55.550Z,16.90
2023-05-01T14:21:24.347Z,17.00
2023-05-01T14:23:55.481Z,17.00
2023-05-01T14:26:24.217Z,17.00
2023-05-01T14:28:51.210Z,16.90
2023-05-01T14:31:30.426Z,16.80
2023-05-01T14:34:02.172Z,16.90
2023-05-01T14:36:33.128Z,16.80
2023-05-01T14:39:01.535Z,16.70
2023-05-01T14:41:29.672Z,16.70
2023-05-01T14:43:56.856Z,16.60
2023-05-01T14:46:31.378Z,16.60
2023-05-01T14:49:00.033Z,16.60
2023-05-01T14:51:28.601Z,16.60
2023-05-01T14:53:56.104Z,16.60
2023-05-01T14:56:23.587Z,16.70
2023-05-01T14:58:50.570Z,16.80
2023-05-01T15:01:18.196Z,16.80
2023-05-01T15:03:45.649Z,16.90
2023-05-01T15:06:12.764Z,17.00
2023-05-01T15:08:39.774Z,16.90
2023-05-01T15:11:06.899Z,16.90
2023-05-01T15:13:34.095Z,16.90
2023-05-01T15:16:01.091Z,17.00
2023-05-01T15:18:28.072Z,17.00
2023-05-01T15:20:55.817Z,17.00
2023-05-01T15:23:23.953Z,17.00
2023-05-01T15:25:51.025Z,17.00
2023-05-01T15:28:18.023Z,17.00
2023-05-01T15:30:46.649Z,16.90
2023-05-01T15:33:17.104Z,16.90
2023-05-01T15:35:46.801Z,16.80
2023-05-01T15:38:13.717Z,16.90
2023-05-01T15:40:43.482Z,16.80
2023-05-01T15:43:10.379Z,16.80
2023-05-01T15:45:42.790Z,16.80
2023-05-01T15:48:11.401Z,16.80
2023-05-01T15:50:38.461Z,16.90
2023-05-01T15:53:05.351Z,16.90
2023-05-01T15:55:32.500Z,16.90
2023-05-01T15:57:59.647Z,16.90
2023-05-01T16:00:26.558Z,16.80
2023-05-01T16:02:53.717Z,16.80
2023-05-01T16:05:21.541Z,16.70
2023-05-01T16:07:58.363Z,16.70
2023-05-01T16:10:25.669Z,17.20
2023-05-01T16:12:55.835Z,16.60
2023-05-01T16:15:23.100Z,16.60
2023-05-01T16:17:51.533Z,16.50
2023-05-01T16:20:18.638Z,16.50
2023-05-01T16:22:45.576Z,16.50
2023-05-01T16:25:13.011Z,16.50
2023-05-01T16:27:42.417Z,16.50
2023-05-01T16:30:10.690Z,16.50
2023-05-01T16:32:39.504Z,16.50
2023-05-01T16:35:06.638Z,16.50
2023-05-01T16:37:34.213Z,16.40
2023-05-01T16:40:01.885Z,16.40
2023-05-01T16:42:29.210Z,16.30
2023-05-01T16:44:56.989Z,16.30
2023-05-01T16:47:24.029Z,16.20
2023-05-01T16:49:52.375Z,16.20
2023-05-01T16:52:19.369Z,16.10
2023-05-01T16:54:46.290Z,16.10
2023-05-01T16:57:13.530Z,16.00
2023-05-01T16:59:40.614Z,16.00
2023-05-01T17:02:07.745Z,15.90
2023-05-01T17:04:34.947Z,15.90
2023-05-01T17:07:01.971Z,15.80
2023-05-01T17:09:29.205Z,15.70
2023-05-01T17:11:56.920Z,15.70
2023-05-01T17:14:24.014Z,15.60
2023-05-01T17:16:51.036Z,15.60
2023-05-01T17:19:18.030Z,15.50
2023-05-01T17:21:44.966Z,15.50
2023-05-01T17:24:14.141Z,15.40
2023-05-01T17:26:41.410Z,15.40
2023-05-01T17:29:08.402Z,15.30
2023-05-01T17:31:35.356Z,15.30
2023-05-01T17:34:02.321Z,15.20
2023-05-01T17:36:29.455Z,15.20
2023-05-01T17:38:56.461Z,15.20
2023-05-01T17:41:24.832Z,15.10
2023-05-01T17:43:51.904Z,15.10
2023-05-01T17:46:20.366Z,15.00
2023-05-01T17:48:48.632Z,15.00
2023-05-01T17:51:15.546Z,14.90
2023-05-01T17:53:42.674Z,14.90
2023-05-01T17:56:09.980Z,14.80
2023-05-01T17:58:37.066Z,14.80
2023-05-01T18:01:07.299Z,14.80
2023-05-01T18:03:34.525Z,14.80
2023-05-01T18:06:02.493Z,14.70
2023-05-01T18:08:29.462Z,14.60
2023-05-01T18:10:56.528Z,14.60
2023-05-01T18:13:28.103Z,14.50
2023-05-01T18:15:55.890Z,14.50
2023-05-01T18:18:23.486Z,14.50
2023-05-01T18:20:50.543Z,14.40
2023-05-01T18:23:20.812Z,14.30
2023-05-01T18:25:47.690Z,14.30
2023-05-01T18:28:16.595Z,14.20
2023-05-01T18:30:43.989Z,14.10
2023-05-01T18:33:12.394Z,14.10
2023-05-01T18:35:41.377Z,14.00
2023-05-01T18:38:09.133Z,14.00
2023-05-01T18:40:36.222Z,13.90
2023-05-01T18:43:03.272Z,13.90
2023-05-01T18:45:30.941Z,13.80
2023-05-01T18:48:00.620Z,13.70
2023-05-01T18:50:27.729Z,13.60
2023-05-01T18:52:54.777Z,13.60
2023-05-01T18:55:21.733Z,13.50
2023-05-01T18:57:48.704Z,13.50
2023-05-01T19:00:17.527Z,13.50
2023-05-01T19:02:51.695Z,13.40
2023-05-01T19:05:19.584Z,13.30
2023-05-01T19:07:46.728Z,13.30
2023-05-01T19:10:14.341Z,13.20
2023-05-01T19:12:42.137Z,13.20
2023-05-01T19:15:10.025Z,13.10
2023-05-01T19:17:37.515Z,13.10
2023-05-01T19:20:05.064Z,13.10
2023-05-01T19:22:32.152Z,13.00
2023-05-01T19:25:00.273Z,13.00
2023-05-01T19:27:27.451Z,12.90
2023-05-01T19:29:54.730Z,12.90
2023-05-01T19:32:23.228Z,12.80
2023-05-01T19:34:50.381Z,12.80
2023-05-01T19:37:17.505Z,12.80
2023-05-01T19:39:44.548Z,12.70
2023-05-01T19:42:11.981Z,12.70
2023-05-01T19:44:39.710Z,12.60
2023-05-01T19:47:06.832Z,12.50
2023-05-01T19:49:34.074Z,12.50
2023-05-01T19:52:01.395Z,12.40
2023-05-01T19:54:28.741Z,12.30
2023-05-01T19:56:56.207Z,12.20
2023-05-01T19:59:23.321Z,12.10
2023-05-01T20:01:50.624Z,12.10
2023-05-01T20:04:17.812Z,12.00
2023-05-01T20:06:44.963Z,11.90
2023-05-01T20:09:12.104Z,11.80
2023-05-01T20:11:38.997Z,11.80
2023-05-01T20:14:05.975Z,11.70
2023-05-01T20:16:33.197Z,11.70
2023-05-01T20:19:00.377Z,11.60
2023-05-01T20:21:27.200Z,11.60
2023-05-01T20:23:55.128Z,11.60
2023-05-01T20:26:22.072Z,11.50
2023-05-01T20:28:50.108Z,11.50
2023-05-01T20:31:17.320Z,11.40
2023-05-01T20:33:44.281Z,11.40
2023-05-01T20:36:11.219Z,11.30
2023-05-01T20:38:46.404Z,11.30
2023-05-01T20:41:13.576Z,11.20
2023-05-01T20:43:40.518Z,11.10
2023-05-01T20:46:07.498Z,11.10
2023-05-01T20:48:34.432Z,11.10
2023-05-01T20:51:01.399Z,11.00
2023-05-01T20:53:28.271Z,11.10
2023-05-01T20:55:55.131Z,11.00
2023-05-01T20:58:22.031Z,11.00
2023-05-01T21:00:49.067Z,10.90
2023-05-01T21:03:16.275Z,10.90
2023-05-01T21:05:43.322Z,10.80
2023-05-01T21:08:10.209Z,10.80
2023-05-01T21:10:37.123Z,10.80
2023-05-01T21:13:04.098Z,10.80
2023-05-01T21:15:32.117Z,10.70
2023-05-01T21:17:59.728Z,10.70
2023-05-01T21:20:35.777Z,10.70
2023-05-01T21:23:02.836Z,10.70
2023-05-01T21:25:31.949Z,10.70
2023-05-01T21:28:02.224Z,10.70
2023-05-01T21:30:36.593Z,10.70
2023-05-01T21:33:06.410Z,10.70
2023-05-01T21:35:33.682Z,10.60
2023-05-01T21:38:00.659Z,10.50
2023-05-01T21:40:27.653Z,10.50
2023-05-01T21:42:55.237Z,10.50
2023-05-01T21:45:22.580Z,10.50
2023-05-01T21:47:51.352Z,10.50
2023-05-01T21:50:20.222Z,10.50
2023-05-01T21:52:49.865Z,10.50
2023-05-01T21:55:22.267Z,10.40
2023-05-01T21:57:52.000Z,10.40
2023-05-01T22:00:20.966Z,10.40
2023-05-01T22:02:52.029Z,10.30
2023-05-01T22:05:22.586Z,10.20
2023-05-01T22:07:52.153Z,10.20
2023-05-01T22:10:19.723Z,10.20
2023-05-01T22:12:48.892Z,10.10
2023-05-01T22:15:16.369Z,10.10
2023-05-01T22:17:43.629Z,10.10
2023-05-01T22:20:10.976Z,10.00
2023-05-01T22:22:39.753Z,10.00
2023-05-01T22:25:07.788Z,10.00
2023-05-01T22:27:34.844Z,10.00
2023-05-01T22:30:02.848Z,9.90
2023-05-01T22:32:30.156Z,9.90
2023-05-01T22:34:57.076Z,9.90
2023-05-01T22:37:25.642Z,9.90
2023-05-01T22:39:53.729Z,10.00
2023-05-01T22:42:21.018Z,9.90
2023-05-01T22:44:48.311Z,9.90
2023-05-01T22:47:15.322Z,9.90
2023-05-01T22:49:42.598Z,9.90
2023-05-01T22:52:09.495Z,9.80
2023-05-01T22:54:36.391Z,9.80
2023-05-01T22:57:03.328Z,9.80
2023-05-01T22:59:30.305Z,9.80
2023-05-01T23:01:57.441Z,9.80
2023-05-01T23:04:24.386Z,9.80
2023-05-01T23:06:51.332Z,9.80
2023-05-01T23:09:18.456Z,9.80
2023-05-01T23:11:47.802Z,9.80
2023-05-01T23:14:18.526Z,9.80
2023-05-01T23:16:45.733Z,9.80
2023-05-01T23:19:24.128Z,9.80
2023-05-01T23:22:04.380Z,9.70
2023-05-01T23:24:41.995Z,9.70
2023-05-01T23:27:09.065Z,9.70
2023-05-01T23:29:36.642Z,9.70
2023-05-01T23:32:03.793Z,9.70
2023-05-01T23:34:31.825Z,9.70
2023-05-01T23:36:58.708Z,9.70
2023-05-01T23:39:25.578Z,9.70
2023-05-01T23:41:53.050Z,9.60
2023-05-01T23:44:19.923Z,9.70
2023-05-01T23:46:46.910Z,9.60
2023-05-01T23:49:13.788Z,9.60
2023-05-01T23:51:40.945Z,9.60
2023-05-01T23:54:07.812Z,9.60
2023-05-01T23:56:34.881Z,9.60
2023-05-01T23:59:01.949Z,9.60
